Time;durP1;ratioP1;P1;durP2;ratioP2;P2;SDS_P1;SDS_P2;PMS_P1;PMS_P2;Temp;Humidity;BMP_temperature;BMP_pressure;BME280_temperature;BME280_humidity;BME280_pressure;Samples;Min_cycle;Max_cycle;Signal;HPM_P1;HPM_P2
2024/02/22 00:03:18;;;;;;;1.00;0.90;;;;;;;8.67;64.68;98705.91;10520231;28;20101;-63
2024/02/22 00:08:21;;;;;;;1.00;0.90;;;;;;;8.60;65.33;98699.47;10519349;28;20056;-63
2024/02/22 00:13:24;;;;;;;1.10;0.90;;;;;;;8.73;65.06;98688.06;10519963;28;20048;-63
2024/02/22 00:18:26;;;;;;;1.25;0.68;;;;;;;8.74;64.80;98674.09;10520746;28;20113;-63
2024/02/22 00:23:28;;;;;;;1.65;1.00;;;;;;;8.74;64.90;98668.03;10519365;28;20097;-63
2024/02/22 00:28:30;;;;;;;0.93;0.88;;;;;;;8.73;64.82;98653.31;10519106;28;20116;-62
2024/02/22 00:33:32;;;;;;;0.60;0.60;;;;;;;8.77;64.96;98646.97;10519083;28;20376;-63
2024/02/22 00:38:34;;;;;;;3.10;0.80;;;;;;;8.75;65.09;98639.25;10501339;28;20055;-63
2024/02/22 00:43:36;;;;;;;0.68;0.68;;;;;;;8.83;64.84;98630.91;10485223;28;20135;-62
2024/02/22 00:48:39;;;;;;;0.88;0.63;;;;;;;8.69;65.55;98626.66;10517678;28;20047;-63
2024/02/22 00:53:41;;;;;;;0.65;0.60;;;;;;;8.77;64.93;98623.53;10518852;28;20052;-63
2024/02/22 00:58:43;;;;;;;1.15;0.73;;;;;;;8.83;65.12;98605.63;10517905;28;20044;-62
2024/02/22 01:03:45;;;;;;;0.60;0.60;;;;;;;8.83;65.33;98590.00;10518906;28;20105;-63
2024/02/22 01:08:47;;;;;;;0.60;0.60;;;;;;;8.79;65.42;98583.34;10483710;28;20501;-63
2024/02/22 01:13:49;;;;;;;0.73;0.60;;;;;;;8.84;65.35;98572.56;10518269;28;20063;-63
2024/02/22 01:18:51;;;;;;;0.65;0.60;;;;;;;8.79;65.57;98574.72;10517422;28;20044;-63
2024/02/22 01:23:53;;;;;;;0.60;0.60;;;;;;;8.80;65.69;98566.78;10517710;28;20044;-63
2024/02/22 01:28:55;;;;;;;0.63;0.63;;;;;;;8.75;66.10;98557.63;10517119;28;20503;-62
2024/02/22 01:33:57;;;;;;;0.65;0.60;;;;;;;8.71;66.11;98540.53;10517391;28;20044;-63
2024/02/22 01:39:03;;;;;;;0.75;0.40;;;;;;;8.74;66.08;98533.34;10517118;28;20071;-63
2024/02/22 01:44:05;;;;;;;0.93;0.75;;;;;;;8.82;66.04;98520.56;10499445;28;20040;-62
2024/02/22 01:49:08;;;;;;;0.47;0.47;;;;;;;8.85;66.02;98506.47;10498926;28;20044;-63
2024/02/22 01:54:12;;;;;;;0.50;0.50;;;;;;;8.77;66.46;98491.38;10516490;28;20059;-63
2024/02/22 01:59:15;;;;;;;0.70;0.70;;;;;;;8.85;66.14;98488.22;10516109;28;20051;-63
2024/02/22 02:04:18;;;;;;;0.40;0.40;;;;;;;8.77;66.59;98478.34;10516039;28;20466;-62
2024/02/22 02:09:20;;;;;;;0.30;0.30;;;;;;;8.79;66.59;98471.25;10515124;28;20400;-63
2024/02/22 02:14:23;;;;;;;0.40;0.40;;;;;;;8.80;66.49;98466.88;10515596;28;20068;-63
2024/02/22 02:19:26;;;;;;;0.35;0.30;;;;;;;8.83;66.49;98453.63;10515332;28;20051;-63
2024/02/22 02:24:44;;;;;;;0.55;0.22;;;;;;;8.76;67.24;98447.19;10498165;28;20048;-63
2024/02/22 02:29:46;;;;;;;0.52;0.40;;;;;;;8.82;66.54;98428.50;10515702;28;20432;-63
2024/02/22 02:34:48;;;;;;;0.40;0.40;;;;;;;8.81;66.84;98419.03;10493121;28;20044;-66
2024/02/22 02:39:52;;;;;;;0.32;0.30;;;;;;;8.82;67.02;98418.06;10515252;28;20044;-63
2024/02/22 02:44:54;;;;;;;0.30;0.30;;;;;;;8.80;66.96;98410.38;10493889;28;20036;-63
2024/02/22 02:49:56;;;;;;;0.28;0.20;;;;;;;8.80;66.88;98405.16;10515177;28;20055;-63
2024/02/22 02:54:59;;;;;;;0.30;0.30;;;;;;;8.81;67.02;98388.56;10515506;28;20052;-63
2024/02/22 03:00:01;;;;;;;0.25;0.25;;;;;;;8.84;67.02;98392.72;10514857;28;20301;-63
2024/02/22 03:05:03;;;;;;;0.40;0.40;;;;;;;8.95;66.89;98376.25;10514667;28;20392;-63
2024/02/22 03:10:06;;;;;;;0.22;0.22;;;;;;;8.92;66.88;98374.69;10497125;28;20488;-63
2024/02/22 03:15:08;;;;;;;0.25;0.25;;;;;;;8.90;67.00;98371.38;10497393;28;20531;-63
2024/02/22 03:20:10;;;;;;;0.17;0.17;;;;;;;8.87;67.07;98369.03;10513974;28;20070;-62
2024/02/22 03:25:13;;;;;;;0.32;0.30;;;;;;;8.86;67.37;98354.31;10521517;28;20082;-63
2024/02/22 03:30:16;;;;;;;0.28;0.28;;;;;;;8.88;67.26;98352.41;10522643;28;20072;-62
2024/02/22 03:35:19;;;;;;;0.60;0.38;;;;;;;8.88;67.41;98331.56;10503928;28;20491;-63
2024/02/22 03:40:21;;;;;;;0.28;0.28;;;;;;;8.89;67.32;98335.84;10537611;27;20411;-62
2024/02/22 03:45:23;;;;;;;0.40;0.40;;;;;;;8.96;67.32;98333.56;10501415;28;20055;-63
2024/02/22 03:50:25;;;;;;;0.40;0.40;;;;;;;8.90;67.37;98337.47;10521902;28;20051;-63
2024/02/22 03:55:30;;;;;;;0.82;0.30;;;;;;;8.89;67.57;98335.84;10520835;28;20036;-62
2024/02/22 04:00:33;;;;;;;0.22;0.20;;;;;;;9.00;67.29;98329.75;10536455;27;20354;-62
2024/02/22 04:05:36;;;;;;;0.35;0.32;;;;;;;8.96;67.40;98316.16;10520034;28;20411;-63
2024/02/22 04:10:38;;;;;;;0.30;0.30;;;;;;;9.04;67.28;98298.13;10520526;28;20071;-63
2024/02/22 04:15:40;;;;;;;0.30;0.30;;;;;;;9.05;67.42;98291.13;10520480;28;20416;-63
2024/02/22 04:20:42;;;;;;;0.20;0.20;;;;;;;9.00;67.46;98294.09;10520297;28;20059;-63
2024/02/22 04:25:45;;;;;;;0.20;0.20;;;;;;;8.97;67.63;98285.69;10502143;28;20090;-63
2024/02/22 04:30:48;;;;;;;0.32;0.32;;;;;;;8.98;67.71;98282.13;10520135;28;20063;-63
2024/02/22 04:35:50;;;;;;;0.40;0.40;;;;;;;9.05;67.58;98260.69;10501200;28;20040;-63
2024/02/22 04:40:53;;;;;;;0.20;0.20;;;;;;;9.07;67.58;98256.16;10519483;28;20423;-63
2024/02/22 04:45:55;;;;;;;0.30;0.30;;;;;;;9.05;67.56;98258.06;10518737;28;20047;-63
2024/02/22 04:50:57;;;;;;;0.30;0.30;;;;;;;9.07;67.68;98253.56;10501493;28;20055;-62
2024/02/22 04:55:59;;;;;;;0.45;0.45;;;;;;;9.13;67.40;98255.66;10500378;28;20109;-64
2024/02/22 05:01:02;;;;;;;0.38;0.38;;;;;;;9.12;67.43;98245.34;10500530;28;20076;-63
2024/02/22 05:06:05;;;;;;;0.28;0.22;;;;;;;9.16;67.35;98244.97;10518297;28;20050;-64
2024/02/22 05:11:10;;;;;;;0.38;0.38;;;;;;;9.16;67.43;98218.06;10518794;28;20059;-64
2024/02/22 05:16:13;;;;;;;0.32;0.30;;;;;;;9.17;67.42;98210.13;10518008;28;20139;-63
2024/02/22 05:21:15;;;;;;;0.38;0.38;;;;;;;9.19;67.44;98215.22;10517682;28;20043;-63
2024/02/22 05:26:17;;;;;;;0.22;0.22;;;;;;;9.14;67.55;98199.94;10499742;28;20856;-63
2024/02/22 05:31:23;;;;;;;2.45;1.20;;;;;;;9.16;67.55;98202.41;10533318;27;20051;-63
2024/02/22 05:36:25;;;;;;;1.77;1.00;;;;;;;9.19;67.51;98205.63;10517155;28;20404;-63
2024/02/22 05:41:27;;;;;;;0.60;0.60;;;;;;;9.16;67.60;98195.41;10517211;28;20545;-63
2024/02/22 05:46:29;;;;;;;0.40;0.40;;;;;;;9.16;67.60;98186.75;10515584;28;20062;-62
2024/02/22 05:51:31;;;;;;;0.32;0.32;;;;;;;9.27;67.36;98179.75;10517021;28;20036;-63
2024/02/22 05:56:33;;;;;;;0.20;0.20;;;;;;;9.20;67.43;98167.34;10498995;28;20102;-63
2024/02/22 06:01:35;;;;;;;0.22;0.22;;;;;;;9.21;67.26;98161.97;10515359;28;20407;-64
2024/02/22 06:06:38;;;;;;;0.35;0.35;;;;;;;9.21;67.36;98150.72;10515653;28;20700;-64
2024/02/22 06:11:40;;;;;;;0.30;0.30;;;;;;;9.19;67.26;98145.63;10515895;28;20526;-63
2024/02/22 06:16:42;;;;;;;0.40;0.40;;;;;;;9.10;67.81;98143.75;10515256;28;20071;-64
2024/02/22 06:21:44;;;;;;;0.93;0.50;;;;;;;9.15;67.65;98139.00;10531735;28;20052;-63
2024/02/22 06:26:46;;;;;;;0.32;0.32;;;;;;;9.21;67.44;98148.94;10514976;28;20052;-63
2024/02/22 06:31:48;;;;;;;0.40;0.40;;;;;;;9.17;67.57;98147.53;10515912;28;20055;-63
2024/02/22 06:36:51;;;;;;;0.30;0.30;;;;;;;9.12;67.91;98128.00;10514318;28;20059;-64
2024/02/22 06:41:54;;;;;;;0.30;0.30;;;;;;;9.19;67.68;98103.06;10496989;28;20132;-64
2024/02/22 06:46:56;;;;;;;0.38;0.38;;;;;;;9.26;67.70;98099.81;10497320;28;20044;-64
2024/02/22 06:51:58;;;;;;;1.08;0.60;;;;;;;9.34;67.53;98094.78;10497729;28;20513;-63
2024/02/22 06:57:01;;;;;;;0.40;0.40;;;;;;;9.41;67.33;98095.09;10517292;28;20089;-62
2024/02/22 07:02:05;;;;;;;0.30;0.30;;;;;;;9.51;67.19;98093.38;10523830;28;20643;-64
2024/02/22 07:07:07;;;;;;;0.30;0.30;;;;;;;9.55;67.29;98069.50;10522722;28;20058;-63
2024/02/22 07:12:09;;;;;;;0.25;0.25;;;;;;;9.71;66.87;98063.03;10523207;28;20131;-62
2024/02/22 07:17:11;;;;;;;0.40;0.40;;;;;;;9.77;66.99;98046.84;10505111;28;20427;-63
2024/02/22 07:22:13;;;;;;;0.50;0.50;;;;;;;9.88;66.71;98059.75;10520518;28;20105;-63
2024/02/22 07:27:17;;;;;;;1.45;0.90;;;;;;;9.97;66.60;98059.00;10521430;28;20040;-63
2024/02/22 07:32:19;;;;;;;0.50;0.50;;;;;;;10.04;66.49;98067.91;10521937;28;20416;-63
2024/02/22 07:37:22;;;;;;;0.40;0.40;;;;;;;10.00;66.47;98054.31;10522284;28;20419;-63
2024/02/22 07:42:24;;;;;;;0.30;0.30;;;;;;;10.01;66.58;98047.31;10504726;28;20132;-63
2024/02/22 07:47:26;;;;;;;1.08;0.35;;;;;;;10.10;66.38;98028.22;10503812;28;20138;-63
2024/02/22 07:52:28;;;;;;;0.40;0.38;;;;;;;10.34;65.99;98019.03;10521912;28;20056;-63
2024/02/22 07:57:30;;;;;;;0.30;0.30;;;;;;;10.47;65.67;98001.31;10503114;28;20129;-64
2024/02/22 08:02:32;;;;;;;0.85;0.32;;;;;;;10.65;65.29;98003.22;10537178;27;20128;-63
2024/02/22 08:07:34;;;;;;;0.30;0.30;;;;;;;10.78;65.08;97998.53;10501500;28;20097;-62
2024/02/22 08:12:37;;;;;;;0.30;0.30;;;;;;;10.98;64.63;97992.31;10520844;28;20440;-63
2024/02/22 08:17:41;;;;;;;0.28;0.28;;;;;;;11.04;64.62;97992.59;10520707;28;20097;-63
2024/02/22 08:22:43;;;;;;;0.47;0.25;;;;;;;11.13;64.27;97983.88;10520839;28;20145;-63
2024/02/22 08:27:45;;;;;;;0.50;0.50;;;;;;;11.15;64.41;97981.16;10519690;28;20067;-63
2024/02/22 08:33:03;;;;;;;0.60;0.57;;;;;;;11.09;64.26;97971.25;10519726;28;20066;-62
2024/02/22 08:38:07;;;;;;;1.25;0.68;;;;;;;11.08;64.28;97959.97;10519785;28;20134;-63
2024/02/22 08:43:09;;;;;;;0.30;0.30;;;;;;;10.98;64.45;97953.91;10519326;28;20125;-63
2024/02/22 08:48:12;;;;;;;0.35;0.35;;;;;;;11.05;64.28;97931.47;10519093;28;20048;-62
2024/02/22 08:53:14;;;;;;;0.60;0.30;;;;;;;10.96;64.29;97921.84;10501138;28;20132;-62
2024/02/22 08:58:16;;;;;;;0.20;0.20;;;;;;;11.09;64.17;97913.72;10518387;28;20048;-62
2024/02/22 09:03:18;;;;;;;0.43;0.43;;;;;;;11.11;64.18;97889.03;10517494;28;20106;-62
2024/02/22 09:08:21;;;;;;;0.77;0.32;;;;;;;11.09;64.11;97901.44;10507929;28;20320;-63
2024/02/22 09:13:23;;;;;;;0.22;0.22;;;;;;;11.19;64.02;97883.91;10508477;28;20045;-63
2024/02/22 09:18:25;;;;;;;0.30;0.30;;;;;;;11.21;64.01;97878.53;10474208;28;20067;-62
2024/02/22 09:23:27;;;;;;;0.20;0.20;;;;;;;11.23;63.82;97864.31;10475208;28;20037;-63
2024/02/22 09:28:31;;;;;;;0.20;0.20;;;;;;;11.16;63.77;97859.81;10475879;28;20132;-63
2024/02/22 09:33:33;;;;;;;0.40;0.40;;;;;;;11.39;63.70;97855.03;10475642;28;20101;-62
2024/02/22 09:38:35;;;;;;;1.00;0.70;;;;;;;11.27;63.63;97849.97;10470885;28;20052;-61
2024/02/22 09:43:37;;;;;;;1.75;1.20;;;;;;;11.46;63.48;97843.00;10457011;28;20074;-62
2024/02/22 09:48:42;;;;;;;0.82;0.60;;;;;;;11.36;63.19;97816.09;10474224;28;20048;-63
2024/02/22 09:53:45;;;;;;;0.50;0.50;;;;;;;11.50;63.42;97803.28;10475016;28;20583;-62
2024/02/22 09:58:50;;;;;;;0.47;0.38;;;;;;;11.51;62.40;97804.94;10474148;28;20068;-63
2024/02/22 10:03:52;;;;;;;0.43;0.30;;;;;;;11.72;62.74;97802.03;10472225;28;20041;-62
2024/02/22 10:08:58;;;;;;;0.20;0.20;;;;;;;11.60;62.64;97777.06;10503652;28;20056;-62
2024/02/22 10:14:04;;;;;;;0.10;0.10;;;;;;;11.77;62.69;97779.66;10514674;28;20059;-62
2024/02/22 10:19:11;;;;;;;0.15;0.15;;;;;;;11.99;62.28;97757.38;10514185;28;20514;-62
2024/02/22 10:24:13;;;;;;;0.50;0.50;;;;;;;12.40;61.74;97753.25;10531329;28;20063;-62
2024/02/22 10:29:15;;;;;;;1.17;0.80;;;;;;;12.64;60.98;97732.41;10510919;28;20504;-63
2024/02/22 10:34:19;;;;;;;0.50;0.50;;;;;;;12.72;60.91;97707.03;10514782;28;20051;-62
2024/02/22 10:39:24;;;;;;;1.65;0.63;;;;;;;12.62;60.58;97698.47;10498017;28;20185;-63
2024/02/22 10:44:26;;;;;;;0.95;0.30;;;;;;;12.49;61.21;97699.91;10515291;28;20044;-62
2024/02/22 10:49:31;;;;;;;0.30;0.30;;;;;;;12.44;60.75;97695.13;10495681;28;20043;-62
2024/02/22 10:54:34;;;;;;;0.20;0.20;;;;;;;12.60;60.86;97697.81;10514386;28;20048;-63
2024/02/22 10:59:38;;;;;;;0.20;0.20;;;;;;;12.55;60.47;97702.72;10514169;28;20149;-63
2024/02/22 11:04:40;;;;;;;0.25;0.20;;;;;;;12.45;60.52;97688.91;10514242;28;20048;-63
2024/02/22 11:09:43;;;;;;;0.20;0.20;;;;;;;12.20;60.84;97681.03;10514035;28;20411;-62
2024/02/22 11:14:45;;;;;;;0.93;0.50;;;;;;;12.31;60.93;97659.84;10496269;28;20101;-63
2024/02/22 11:19:52;;;;;;;0.30;0.30;;;;;;;12.61;60.59;97628.66;10513614;28;20117;-62
2024/02/22 11:24:55;;;;;;;0.20;0.20;;;;;;;12.61;60.51;97633.91;10514374;28;20052;-63
2024/02/22 11:29:59;;;;;;;0.30;0.30;;;;;;;12.38;60.85;97630.22;10513444;28;20052;-62
2024/02/22 11:35:01;;;;;;;0.30;0.30;;;;;;;12.31;60.87;97602.19;10512149;28;20584;-62
2024/02/22 11:40:04;;;;;;;0.50;0.50;;;;;;;12.34;60.99;97586.13;10513798;28;20431;-63
2024/02/22 11:45:13;;;;;;;0.55;0.55;;;;;;;12.27;60.96;97572.00;10516241;28;20518;-63
2024/02/22 11:50:17;;;;;;;0.43;0.43;;;;;;;12.23;61.01;97549.72;10501828;28;20080;-63
2024/02/22 11:55:19;;;;;;;0.70;0.70;;;;;;;12.29;61.27;97542.06;10519739;28;20044;-64
2024/02/22 12:00:21;;;;;;;0.30;0.30;;;;;;;12.32;60.93;97543.53;10520030;28;20047;-63
2024/02/22 12:05:24;;;;;;;0.80;0.80;;;;;;;12.17;61.26;97535.47;10519091;28;20419;-63
2024/02/22 12:10:28;;;;;;;0.70;0.50;;;;;;;12.09;61.73;97525.75;10519330;28;20040;-63
2024/02/22 12:15:30;;;;;;;0.20;0.20;;;;;;;12.14;61.02;97520.03;10519631;28;20461;-64
2024/02/22 12:20:33;;;;;;;0.20;0.20;;;;;;;12.26;60.99;97525.78;10501033;28;20048;-63
2024/02/22 12:25:35;;;;;;;0.60;0.60;;;;;;;12.42;61.22;97497.84;10519337;28;20378;-63
2024/02/22 12:30:39;;;;;;;1.10;0.70;;;;;;;12.46;61.48;97482.59;10502589;28;20036;-63
2024/02/22 12:35:41;;;;;;;0.40;0.40;;;;;;;12.54;61.50;97459.03;10500413;28;20054;-63
2024/02/22 12:40:44;;;;;;;0.70;0.70;;;;;;;12.57;61.23;97454.28;10501598;28;20062;-63
2024/02/22 12:45:50;;;;;;;0.63;0.52;;;;;;;12.37;61.73;97458.22;10519341;28;20317;-64
2024/02/22 12:50:52;;;;;;;0.93;0.57;;;;;;;12.37;61.75;97429.38;10519118;28;20109;-64
2024/02/22 12:55:54;;;;;;;1.10;0.70;;;;;;;12.15;62.29;97416.84;10512498;28;20044;-57
2024/02/22 13:00:56;;;;;;;1.77;1.25;;;;;;;12.31;61.83;97398.59;10518926;28;20505;-56
2024/02/22 13:05:58;;;;;;;0.85;0.45;;;;;;;12.24;61.93;97387.06;10517304;28;20143;-56
2024/02/22 13:11:00;;;;;;;0.57;0.57;;;;;;;12.22;61.83;97380.34;10518092;28;20350;-52
2024/02/22 13:16:04;;;;;;;0.30;0.30;;;;;;;12.18;61.81;97353.66;10531608;27;20043;-56
2024/02/22 13:21:06;;;;;;;0.57;0.40;;;;;;;12.11;61.67;97335.16;10517598;28;20423;-57
2024/02/22 13:26:09;;;;;;;1.65;0.75;;;;;;;12.18;61.70;97316.97;10515357;28;20300;-56
2024/02/22 13:31:11;;;;;;;1.05;0.50;;;;;;;12.22;61.82;97302.56;10514438;28;20187;-56
2024/02/22 13:36:13;;;;;;;0.28;0.28;;;;;;;12.29;61.39;97287.88;10509269;28;20134;-54
2024/02/22 13:41:16;;;;;;;0.35;0.35;;;;;;;12.18;61.69;97277.69;10490484;28;20044;-56
2024/02/22 13:46:18;;;;;;;0.52;0.25;;;;;;;12.29;61.41;97264.28;10526841;27;20047;-53
2024/02/22 13:51:20;;;;;;;1.27;0.40;;;;;;;12.31;61.11;97245.75;10510885;28;20044;-55
2024/02/22 13:56:35;;;;;;;0.25;0.25;;;;;;;12.23;61.27;97256.22;10511387;28;20040;-56
2024/02/22 14:01:39;;;;;;;0.38;0.38;;;;;;;12.14;61.35;97250.19;10510848;28;20055;-55
2024/02/22 14:06:41;;;;;;;0.50;0.50;;;;;;;12.07;61.40;97241.34;10510136;28;20181;-56
2024/02/22 14:11:44;;;;;;;0.25;0.25;;;;;;;12.12;61.59;97218.91;10509545;28;20047;-55
2024/02/22 14:16:48;;;;;;;0.40;0.40;;;;;;;12.07;61.15;97225.63;10510342;28;20572;-57
2024/02/22 14:21:51;;;;;;;0.28;0.28;;;;;;;12.05;60.87;97191.72;10509248;28;20094;-57
2024/02/22 14:26:53;;;;;;;0.35;0.35;;;;;;;12.06;60.98;97197.81;10510799;28;20127;-57
2024/02/22 14:31:55;;;;;;;0.60;0.40;;;;;;;12.17;60.68;97184.34;10510816;28;20444;-57
2024/02/22 14:36:57;;;;;;;0.45;0.40;;;;;;;12.11;60.66;97175.34;10509093;28;20376;-56
2024/02/22 14:41:59;;;;;;;0.98;0.65;;;;;;;12.13;60.51;97169.94;10510307;28;20131;-57
2024/02/22 14:47:04;;;;;;;2.83;1.70;;;;;;;12.07;60.58;97140.00;10490785;28;20036;-57
2024/02/22 14:52:06;;;;;;;2.30;0.60;;;;;;;11.98;60.57;97127.91;10507190;28;20125;-53
2024/02/22 14:57:09;;;;;;;0.95;0.50;;;;;;;12.00;60.46;97099.75;10510013;28;20329;-56
2024/02/22 15:02:11;;;;;;;1.10;0.38;;;;;;;12.05;60.58;97107.09;10508667;28;20577;-54
2024/02/22 15:07:13;;;;;;;1.02;0.50;;;;;;;11.98;61.13;97090.44;10513914;28;20048;-57
2024/02/22 15:12:15;;;;;;;0.35;0.35;;;;;;;11.82;61.48;97075.59;10479369;28;20051;-57
2024/02/22 15:17:24;;;;;;;0.75;0.50;;;;;;;11.87;61.87;97054.94;10514080;28;20109;-57
2024/02/22 15:22:27;;;;;;;0.50;0.45;;;;;;;11.60;62.37;97046.69;10522095;28;20151;-56
2024/02/22 15:27:30;;;;;;;0.30;0.30;;;;;;;11.69;62.69;97019.50;10522825;28;20105;-56
2024/02/22 15:32:32;;;;;;;0.47;0.47;;;;;;;11.66;62.31;97012.00;10521355;28;20396;-56
2024/02/22 15:37:35;;;;;;;0.40;0.40;;;;;;;11.61;62.70;97002.03;10504098;28;21010;-55
2024/02/22 15:42:39;;;;;;;0.75;0.63;;;;;;;11.50;63.40;97001.56;10522088;28;20048;-56
2024/02/22 15:47:41;;;;;;;0.40;0.40;;;;;;;11.43;63.55;96990.13;10521350;28;20215;-56
2024/02/22 15:52:43;;;;;;;0.93;0.93;;;;;;;11.48;63.26;96988.63;10519463;28;20055;-56
2024/02/22 15:57:45;;;;;;;0.22;0.22;;;;;;;11.44;64.03;96968.22;10520613;28;20059;-57
2024/02/22 16:02:47;;;;;;;0.30;0.30;;;;;;;11.37;64.34;96954.16;10520902;28;20040;-57
2024/02/22 16:07:50;;;;;;;0.38;0.38;;;;;;;11.51;63.42;96954.28;10520600;28;20147;-56
2024/02/22 16:12:52;;;;;;;0.30;0.30;;;;;;;11.57;63.35;96965.88;10502505;28;20048;-57
2024/02/22 16:17:55;;;;;;;0.85;0.63;;;;;;;11.41;63.70;96950.22;10520163;28;20544;-55
2024/02/22 16:22:58;;;;;;;0.63;0.35;;;;;;;11.50;63.45;96951.84;10518571;28;20055;-57
2024/02/22 16:28:00;;;;;;;0.63;0.57;;;;;;;11.45;63.24;96938.44;10517930;28;20043;-55
2024/02/22 16:33:02;;;;;;;0.50;0.50;;;;;;;11.48;63.06;96922.41;10516215;28;20699;-57
2024/02/22 16:38:05;;;;;;;0.20;0.20;;;;;;;11.57;62.55;96863.81;10535199;27;20051;-56
2024/02/22 16:43:07;;;;;;;0.93;0.60;;;;;;;11.59;62.62;96854.78;10517613;28;20147;-56
2024/02/22 16:48:09;;;;;;;0.68;0.68;;;;;;;11.41;62.93;96849.00;10517622;28;20058;-57
2024/02/22 16:53:11;;;;;;;3.83;0.82;;;;;;;11.58;62.58;96847.13;10517724;28;20047;-58
2024/02/22 16:58:13;;;;;;;0.52;0.50;;;;;;;11.62;62.52;96885.06;10518314;28;20086;-57
2024/02/22 17:03:15;;;;;;;0.25;0.25;;;;;;;11.61;62.50;96889.47;10499764;28;20131;-57
2024/02/22 17:08:19;;;;;;;0.85;0.60;;;;;;;11.57;62.69;96892.59;10517186;28;20125;-58
2024/02/22 17:13:21;;;;;;;0.60;0.60;;;;;;;11.57;62.59;96903.06;10517252;28;20285;-58
2024/02/22 17:18:23;;;;;;;0.60;0.60;;;;;;;11.66;62.15;96878.50;10516563;28;20055;-58
2024/02/22 17:23:28;;;;;;;1.35;0.85;;;;;;;11.66;62.09;96886.34;10516886;28;21271;-56
2024/02/22 17:28:31;;;;;;;1.13;1.00;;;;;;;11.68;62.37;96868.66;10516123;28;20396;-56
2024/02/22 17:33:35;;;;;;;1.33;0.82;;;;;;;11.61;62.08;96865.91;10516531;28;20086;-57
2024/02/22 17:38:37;;;;;;;0.60;0.60;;;;;;;11.65;62.32;96850.66;10497652;28;20052;-57
2024/02/22 17:43:39;;;;;;;0.60;0.60;;;;;;;11.66;62.28;96854.94;10515654;28;20044;-56
2024/02/22 17:48:42;;;;;;;1.05;0.85;;;;;;;11.72;62.10;96854.22;10514726;28;20048;-57
2024/02/22 17:53:44;;;;;;;0.68;0.65;;;;;;;11.67;62.15;96852.13;10498402;28;20127;-60
2024/02/22 17:58:46;;;;;;;0.70;0.70;;;;;;;11.76;62.01;96858.13;10529721;27;20533;-60
2024/02/22 18:03:57;;;;;;;0.80;0.80;;;;;;;11.76;62.05;96864.19;10515326;28;20040;-60
2024/02/22 18:09:00;;;;;;;1.08;0.80;;;;;;;11.53;62.24;96865.13;10496245;28;20052;-61
2024/02/22 18:14:02;;;;;;;1.08;0.85;;;;;;;11.54;62.40;96872.81;10509979;28;20036;-61
2024/02/22 18:19:06;;;;;;;0.77;0.73;;;;;;;11.30;62.73;96842.34;10508877;28;20555;-61
2024/02/22 18:24:08;;;;;;;0.65;0.65;;;;;;;11.40;62.43;96795.03;10510722;28;20571;-60
2024/02/22 18:29:11;;;;;;;0.70;0.70;;;;;;;11.44;62.15;96787.66;10512367;28;20044;-60
2024/02/22 18:34:14;;;;;;;1.42;1.10;;;;;;;11.41;61.66;96795.84;10492543;28;20076;-60
2024/02/22 18:39:19;;;;;;;0.98;0.90;;;;;;;11.34;61.83;96780.03;10507205;28;20129;-60
2024/02/22 18:44:21;;;;;;;1.45;0.82;;;;;;;11.10;62.36;96790.63;10491193;28;20161;-60
2024/02/22 18:49:25;;;;;;;1.63;1.15;;;;;;;11.08;61.95;96782.94;10492559;28;20062;-60
2024/02/22 18:54:27;;;;;;;1.88;1.20;;;;;;;11.02;61.69;96791.44;10518134;28;20121;-60
2024/02/22 18:59:29;;;;;;;3.47;1.10;;;;;;;10.96;61.19;96789.50;10517880;28;20044;-60
2024/02/22 19:04:32;;;;;;;1.92;1.08;;;;;;;11.08;61.06;96774.28;10487715;28;20044;-60
2024/02/22 19:09:35;;;;;;;2.20;1.52;;;;;;;11.06;61.06;96748.31;10505391;28;20052;-60
2024/02/22 19:14:37;;;;;;;1.30;0.80;;;;;;;11.03;60.96;96768.75;10523931;28;20048;-60
2024/02/22 19:19:40;;;;;;;1.10;0.90;;;;;;;11.17;60.32;96774.06;10504515;28;20044;-60
2024/02/22 19:24:42;;;;;;;1.35;1.00;;;;;;;11.41;60.18;96788.00;10539574;27;20128;-60
2024/02/22 19:29:45;;;;;;;1.45;1.08;;;;;;;11.29;59.65;96764.84;10504720;28;20465;-60
2024/02/22 19:34:47;;;;;;;1.90;1.08;;;;;;;11.15;58.94;96762.16;10516972;28;20044;-60
2024/02/22 19:39:56;;;;;;;1.25;1.00;;;;;;;11.23;58.89;96751.66;10501804;28;20127;-60
2024/02/22 19:44:58;;;;;;;2.08;1.40;;;;;;;11.13;59.13;96741.41;10503669;28;20048;-60
2024/02/22 19:50:03;;;;;;;2.08;1.25;;;;;;;11.16;59.16;96741.06;10517801;28;20062;-60
2024/02/22 19:55:07;;;;;;;1.67;1.08;;;;;;;11.03;59.01;96764.28;10501361;28;20279;-60
2024/02/22 20:00:10;;;;;;;0.90;0.82;;;;;;;11.16;58.98;96772.44;10519836;28;20174;-60
2024/02/22 20:05:16;;;;;;;1.00;0.77;;;;;;;11.20;58.29;96812.16;10518711;28;20430;-60
2024/02/22 20:10:21;;;;;;;1.42;1.00;;;;;;;11.08;58.32;96788.19;10520628;28;20048;-60
2024/02/22 20:15:25;;;;;;;0.65;0.65;;;;;;;10.89;58.29;96846.06;10502554;28;20056;-61
2024/02/22 20:20:28;;;;;;;1.10;0.80;;;;;;;10.78;57.85;96869.16;10519879;28;20043;-60
2024/02/22 20:25:31;;;;;;;1.40;0.80;;;;;;;10.59;57.87;96888.63;10516828;28;20035;-60
2024/02/22 20:30:34;;;;;;;0.70;0.65;;;;;;;10.63;57.27;96894.31;10518818;28;20044;-60
2024/02/22 20:35:37;;;;;;;0.47;0.45;;;;;;;10.53;56.09;96904.94;10517984;28;20438;-60
2024/02/22 20:40:40;;;;;;;0.73;0.43;;;;;;;10.30;51.93;96917.03;10518777;28;20059;-60
2024/02/22 20:45:52;;;;;;;0.55;0.40;;;;;;;10.21;52.27;96886.69;10500693;28;20535;-60
2024/02/22 20:50:58;;;;;;;0.52;0.50;;;;;;;10.16;53.16;96917.66;10517992;28;20048;-60
2024/02/22 20:56:02;;;;;;;0.93;0.68;;;;;;;10.28;53.63;96950.31;10517009;28;20040;-60
2024/02/22 21:01:05;;;;;;;1.10;0.73;;;;;;;10.33;53.98;96959.34;10518219;28;20048;-60
2024/02/22 21:06:15;;;;;;;0.35;0.30;;;;;;;9.82;53.25;96990.06;10517244;28;20044;-60
2024/02/22 21:11:21;;;;;;;0.90;0.45;;;;;;;10.03;54.02;96999.09;10517431;28;20101;-60
2024/02/22 21:16:28;;;;;;;0.95;0.57;;;;;;;9.82;54.06;97010.94;10483205;28;20047;-60
2024/02/22 21:21:31;;;;;;;0.38;0.32;;;;;;;9.84;54.48;97022.03;10517126;28;20044;-59
2024/02/22 21:26:34;;;;;;;2.70;0.60;;;;;;;9.75;54.98;97038.66;10514510;28;20048;-58
2024/02/22 21:31:37;;;;;;;0.40;0.40;;;;;;;9.50;55.36;97056.72;10512770;28;20526;-61
2024/02/22 21:36:41;;;;;;;0.47;0.47;;;;;;;9.34;55.11;97051.41;10515187;28;20130;-58
2024/02/22 21:41:43;;;;;;;1.25;0.50;;;;;;;9.30;54.77;97072.78;10514770;28;20131;-60
2024/02/22 21:46:48;;;;;;;0.35;0.35;;;;;;;9.30;54.74;97084.00;10482017;28;20488;-61
2024/02/22 21:51:51;;;;;;;0.30;0.30;;;;;;;9.20;54.55;97096.31;10498753;28;20543;-60
2024/02/22 21:56:54;;;;;;;0.70;0.50;;;;;;;9.19;53.78;97097.28;10480204;28;20134;-60
2024/02/22 22:01:57;;;;;;;0.40;0.40;;;;;;;9.00;54.09;97120.91;10516009;28;20123;-60
2024/02/22 22:07:00;;;;;;;0.52;0.43;;;;;;;8.98;52.62;97137.66;10513860;28;21091;-60
2024/02/22 22:12:03;;;;;;;6.63;0.85;;;;;;;8.92;51.83;97136.47;10515056;28;20062;-60
2024/02/22 22:17:08;;;;;;;0.50;0.50;;;;;;;8.90;52.32;97161.88;10514542;28;20060;-60
2024/02/22 22:22:12;;;;;;;1.73;0.55;;;;;;;8.65;50.22;97160.81;10496715;28;20056;-60
2024/02/22 22:27:14;;;;;;;0.50;0.50;;;;;;;8.74;50.64;97179.94;10511801;28;20459;-60
2024/02/22 22:32:17;;;;;;;1.00;0.70;;;;;;;8.67;51.49;97195.34;10529576;28;20043;-59
2024/02/22 22:37:21;;;;;;;0.90;0.50;;;;;;;8.68;51.89;97204.00;10514047;28;20036;-59
2024/02/22 22:42:24;;;;;;;0.95;0.38;;;;;;;8.48;52.56;97207.66;10528930;28;20522;-60
2024/02/22 22:47:27;;;;;;;0.28;0.28;;;;;;;8.47;53.17;97224.25;10512591;28;20044;-60
2024/02/22 22:52:31;;;;;;;0.68;0.43;;;;;;;8.40;53.55;97231.00;10513220;28;20044;-60
2024/02/22 22:57:33;;;;;;;1.00;0.70;;;;;;;8.33;52.96;97243.78;10512747;28;20592;-59
2024/02/22 23:02:36;;;;;;;0.40;0.35;;;;;;;8.18;52.29;97239.19;10513638;28;20044;-60
2024/02/22 23:07:38;;;;;;;1.25;0.40;;;;;;;7.96;52.06;97246.31;10513080;28;20085;-60
2024/02/22 23:12:41;;;;;;;2.78;0.55;;;;;;;7.85;51.21;97277.69;10513223;28;20090;-60
2024/02/22 23:17:43;;;;;;;1.27;0.60;;;;;;;7.81;51.00;97301.53;10494394;28;20048;-60
2024/02/22 23:22:47;;;;;;;1.38;0.50;;;;;;;7.77;51.11;97295.75;10512939;28;20055;-60
2024/02/22 23:27:49;;;;;;;0.40;0.40;;;;;;;7.78;51.05;97313.03;10512099;28;20503;-60
2024/02/22 23:32:52;;;;;;;3.50;0.65;;;;;;;7.66;50.73;97316.72;10512103;28;20127;-60
2024/02/22 23:37:56;;;;;;;1.40;0.25;;;;;;;7.63;50.75;97318.78;10511980;28;20129;-60